sensor_id;sensor_type;location;lat;lon;timestamp;temperature;humidity
51878;SHT31;37911;51.526;11.536;2023-07-13T00:02:49;20.13;57.08
51878;SHT31;37911;51.526;11.536;2023-07-13T00:05:57;20.05;57.59
51878;SHT31;37911;51.526;11.536;2023-07-13T00:09:03;20.10;57.76
51878;SHT31;37911;51.526;11.536;2023-07-13T00:12:22;20.12;57.59
51878;SHT31;37911;51.526;11.536;2023-07-13T00:15:26;20.06;58.27
51878;SHT31;37911;51.526;11.536;2023-07-13T00:18:32;19.94;58.84
51878;SHT31;37911;51.526;11.536;2023-07-13T00:21:35;19.89;58.84
51878;SHT31;37911;51.526;11.536;2023-07-13T00:24:41;19.92;59.01
51878;SHT31;37911;51.526;11.536;2023-07-13T00:27:44;19.79;59.31
51878;SHT31;37911;51.526;11.536;2023-07-13T00:30:49;19.68;59.52
51878;SHT31;37911;51.526;11.536;2023-07-13T00:33:52;19.68;59.65
51878;SHT31;37911;51.526;11.536;2023-07-13T00:36:56;19.63;59.97
51878;SHT31;37911;51.526;11.536;2023-07-13T00:40:02;19.48;60.64
51878;SHT31;37911;51.526;11.536;2023-07-13T00:43:12;19.45;60.59
51878;SHT31;37911;51.526;11.536;2023-07-13T00:46:22;19.51;60.47
51878;SHT31;37911;51.526;11.536;2023-07-13T00:49:29;19.41;60.92
51878;SHT31;37911;51.526;11.536;2023-07-13T00:52:35;19.44;60.91
51878;SHT31;37911;51.526;11.536;2023-07-13T00:55:43;19.51;60.61
51878;SHT31;37911;51.526;11.536;2023-07-13T00:58:46;19.48;60.54
51878;SHT31;37911;51.526;11.536;2023-07-13T01:01:50;19.41;61.02
51878;SHT31;37911;51.526;11.536;2023-07-13T01:04:56;19.41;61.16
51878;SHT31;37911;51.526;11.536;2023-07-13T01:08:03;19.34;61.25
51878;SHT31;37911;51.526;11.536;2023-07-13T01:11:10;19.29;61.57
51878;SHT31;37911;51.526;11.536;2023-07-13T01:14:15;19.42;61.43
51878;SHT31;37911;51.526;11.536;2023-07-13T01:17:19;19.34;61.25
51878;SHT31;37911;51.526;11.536;2023-07-13T01:20:22;19.29;61.59
51878;SHT31;37911;51.526;11.536;2023-07-13T01:23:29;19.27;61.63
51878;SHT31;37911;51.526;11.536;2023-07-13T01:26:32;19.17;62.39
51878;SHT31;37911;51.526;11.536;2023-07-13T01:29:37;19.18;62.15
51878;SHT31;37911;51.526;11.536;2023-07-13T01:32:42;19.01;62.79
51878;SHT31;37911;51.526;11.536;2023-07-13T01:35:46;19.07;62.68
51878;SHT31;37911;51.526;11.536;2023-07-13T01:38:53;19.12;62.34
51878;SHT31;37911;51.526;11.536;2023-07-13T01:41:56;19.01;62.44
51878;SHT31;37911;51.526;11.536;2023-07-13T01:45:00;18.97;62.78
51878;SHT31;37911;51.526;11.536;2023-07-13T01:48:05;18.93;63.16
51878;SHT31;37911;51.526;11.536;2023-07-13T01:51:08;18.90;63.20
51878;SHT31;37911;51.526;11.536;2023-07-13T01:54:14;18.83;62.98
51878;SHT31;37911;51.526;11.536;2023-07-13T01:57:18;18.83;63.55
51878;SHT31;37911;51.526;11.536;2023-07-13T02:00:21;18.73;63.90
51878;SHT31;37911;51.526;11.536;2023-07-13T02:03:25;18.68;63.97
51878;SHT31;37911;51.526;11.536;2023-07-13T02:06:28;18.60;63.99
51878;SHT31;37911;51.526;11.536;2023-07-13T02:09:34;18.63;63.95
51878;SHT31;37911;51.526;11.536;2023-07-13T02:12:38;18.60;63.90
51878;SHT31;37911;51.526;11.536;2023-07-13T02:15:41;18.50;64.09
51878;SHT31;37911;51.526;11.536;2023-07-13T02:18:45;18.43;64.40
51878;SHT31;37911;51.526;11.536;2023-07-13T02:21:48;18.36;64.44
51878;SHT31;37911;51.526;11.536;2023-07-13T02:24:56;18.21;65.17
51878;SHT31;37911;51.526;11.536;2023-07-13T02:27:59;18.25;64.89
51878;SHT31;37911;51.526;11.536;2023-07-13T02:31:05;18.22;65.30
51878;SHT31;37911;51.526;11.536;2023-07-13T02:34:08;18.23;65.09
51878;SHT31;37911;51.526;11.536;2023-07-13T02:37:11;18.10;65.37
51878;SHT31;37911;51.526;11.536;2023-07-13T02:40:17;17.95;65.73
51878;SHT31;37911;51.526;11.536;2023-07-13T02:43:21;17.77;66.67
51878;SHT31;37911;51.526;11.536;2023-07-13T02:46:25;17.61;67.27
51878;SHT31;37911;51.526;11.536;2023-07-13T02:49:30;17.58;67.13
51878;SHT31;37911;51.526;11.536;2023-07-13T02:52:33;17.60;67.56
51878;SHT31;37911;51.526;11.536;2023-07-13T02:55:39;17.57;67.26
51878;SHT31;37911;51.526;11.536;2023-07-13T02:58:47;17.60;67.24
51878;SHT31;37911;51.526;11.536;2023-07-13T03:01:51;17.55;67.25
51878;SHT31;37911;51.526;11.536;2023-07-13T03:04:54;17.55;67.35
51878;SHT31;37911;51.526;11.536;2023-07-13T03:07:58;17.51;67.63
51878;SHT31;37911;51.526;11.536;2023-07-13T03:11:06;17.42;67.95
51878;SHT31;37911;51.526;11.536;2023-07-13T03:14:14;17.48;67.95
51878;SHT31;37911;51.526;11.536;2023-07-13T03:17:17;17.42;67.95
51878;SHT31;37911;51.526;11.536;2023-07-13T03:20:20;17.44;67.86
51878;SHT31;37911;51.526;11.536;2023-07-13T03:23:25;17.37;67.96
51878;SHT31;37911;51.526;11.536;2023-07-13T03:26:31;17.27;68.23
51878;SHT31;37911;51.526;11.536;2023-07-13T03:29:34;17.18;68.20
51878;SHT31;37911;51.526;11.536;2023-07-13T03:32:38;17.21;68.54
51878;SHT31;37911;51.526;11.536;2023-07-13T03:35:41;17.21;68.44
51878;SHT31;37911;51.526;11.536;2023-07-13T03:38:45;17.26;68.19
51878;SHT31;37911;51.526;11.536;2023-07-13T03:41:54;17.24;68.31
51878;SHT31;37911;51.526;11.536;2023-07-13T03:44:57;17.30;68.13
51878;SHT31;37911;51.526;11.536;2023-07-13T03:48:01;17.26;68.79
51878;SHT31;37911;51.526;11.536;2023-07-13T03:51:07;17.26;68.34
51878;SHT31;37911;51.526;11.536;2023-07-13T03:54:11;17.24;68.83
51878;SHT31;37911;51.526;11.536;2023-07-13T03:57:18;17.24;69.14
51878;SHT31;37911;51.526;11.536;2023-07-13T04:00:21;17.24;68.64
51878;SHT31;37911;51.526;11.536;2023-07-13T04:03:29;17.37;68.63
51878;SHT31;37911;51.526;11.536;2023-07-13T04:06:33;17.35;68.47
51878;SHT31;37911;51.526;11.536;2023-07-13T04:09:38;17.45;68.41
51878;SHT31;37911;51.526;11.536;2023-07-13T04:12:44;17.41;68.16
51878;SHT31;37911;51.526;11.536;2023-07-13T04:15:47;17.42;68.65
51878;SHT31;37911;51.526;11.536;2023-07-13T04:18:51;17.47;68.20
51878;SHT31;37911;51.526;11.536;2023-07-13T04:21:59;17.48;68.51
51878;SHT31;37911;51.526;11.536;2023-07-13T04:25:03;17.45;68.54
51878;SHT31;37911;51.526;11.536;2023-07-13T04:28:10;17.47;68.91
51878;SHT31;37911;51.526;11.536;2023-07-13T04:31:13;17.62;67.71
51878;SHT31;37911;51.526;11.536;2023-07-13T04:34:17;17.81;67.68
51878;SHT31;37911;51.526;11.536;2023-07-13T04:37:20;17.79;67.67
51878;SHT31;37911;51.526;11.536;2023-07-13T04:40:23;17.89;67.57
51878;SHT31;37911;51.526;11.536;2023-07-13T04:43:30;18.05;68.40
51878;SHT31;37911;51.526;11.536;2023-07-13T04:46:33;18.32;66.90
51878;SHT31;37911;51.526;11.536;2023-07-13T04:49:37;18.50;66.32
51878;SHT31;37911;51.526;11.536;2023-07-13T04:52:41;18.63;66.06
51878;SHT31;37911;51.526;11.536;2023-07-13T04:55:45;18.73;66.09
51878;SHT31;37911;51.526;11.536;2023-07-13T04:58:50;18.86;65.71
51878;SHT31;37911;51.526;11.536;2023-07-13T05:01:55;19.00;65.08
51878;SHT31;37911;51.526;11.536;2023-07-13T05:04:59;19.14;64.96
51878;SHT31;37911;51.526;11.536;2023-07-13T05:08:04;19.28;64.42
51878;SHT31;37911;51.526;11.536;2023-07-13T05:11:08;19.44;63.79
51878;SHT31;37911;51.526;11.536;2023-07-13T05:14:14;19.58;63.53
51878;SHT31;37911;51.526;11.536;2023-07-13T05:17:17;19.63;64.12
51878;SHT31;37911;51.526;11.536;2023-07-13T05:20:21;19.73;63.34
51878;SHT31;37911;51.526;11.536;2023-07-13T05:23:24;19.82;63.72
51878;SHT31;37911;51.526;11.536;2023-07-13T05:26:28;19.94;62.82
51878;SHT31;37911;51.526;11.536;2023-07-13T05:29:34;20.09;61.65
51878;SHT31;37911;51.526;11.536;2023-07-13T05:32:37;20.20;61.29
51878;SHT31;37911;51.526;11.536;2023-07-13T05:35:41;20.37;60.41
51878;SHT31;37911;51.526;11.536;2023-07-13T05:38:44;20.47;60.30
51878;SHT31;37911;51.526;11.536;2023-07-13T05:41:48;20.71;59.15
51878;SHT31;37911;51.526;11.536;2023-07-13T05:44:54;20.84;57.74
51878;SHT31;37911;51.526;11.536;2023-07-13T05:47:57;21.05;56.77
51878;SHT31;37911;51.526;11.536;2023-07-13T05:51:00;21.18;55.47
51878;SHT31;37911;51.526;11.536;2023-07-13T05:54:04;21.45;55.08
51878;SHT31;37911;51.526;11.536;2023-07-13T05:57:07;21.67;54.26
51878;SHT31;37911;51.526;11.536;2023-07-13T06:00:15;21.85;53.36
51878;SHT31;37911;51.526;11.536;2023-07-13T06:03:18;21.97;52.96
51878;SHT31;37911;51.526;11.536;2023-07-13T06:06:21;22.20;52.30
51878;SHT31;37911;51.526;11.536;2023-07-13T06:09:24;22.43;52.25
51878;SHT31;37911;51.526;11.536;2023-07-13T06:12:28;22.71;49.90
51878;SHT31;37911;51.526;11.536;2023-07-13T06:15:34;22.99;49.51
51878;SHT31;37911;51.526;11.536;2023-07-13T06:18:37;23.39;48.19
51878;SHT31;37911;51.526;11.536;2023-07-13T06:21:41;23.35;45.05
51878;SHT31;37911;51.526;11.536;2023-07-13T06:24:44;23.50;45.87
51878;SHT31;37911;51.526;11.536;2023-07-13T06:27:47;23.49;44.95
51878;SHT31;37911;51.526;11.536;2023-07-13T06:30:53;23.39;44.92
51878;SHT31;37911;51.526;11.536;2023-07-13T06:33:56;23.56;44.96
51878;SHT31;37911;51.526;11.536;2023-07-13T06:37:00;23.43;45.57
51878;SHT31;37911;51.526;11.536;2023-07-13T06:40:04;23.90;45.51
51878;SHT31;37911;51.526;11.536;2023-07-13T06:43:08;24.06;45.04
51878;SHT31;37911;51.526;11.536;2023-07-13T06:46:14;24.22;44.26
51878;SHT31;37911;51.526;11.536;2023-07-13T06:49:17;24.44;43.25
51878;SHT31;37911;51.526;11.536;2023-07-13T06:52:20;24.85;42.97
51878;SHT31;37911;51.526;11.536;2023-07-13T06:55:24;25.02;42.11
51878;SHT31;37911;51.526;11.536;2023-07-13T06:58:27;24.79;42.82
51878;SHT31;37911;51.526;11.536;2023-07-13T07:01:33;25.15;42.05
51878;SHT31;37911;51.526;11.536;2023-07-13T07:04:37;25.11;41.47
51878;SHT31;37911;51.526;11.536;2023-07-13T07:07:41;24.82;42.40
51878;SHT31;37911;51.526;11.536;2023-07-13T07:10:45;24.92;42.60
51878;SHT31;37911;51.526;11.536;2023-07-13T07:13:52;25.20;43.69
51878;SHT31;37911;51.526;11.536;2023-07-13T07:16:59;25.80;41.85
51878;SHT31;37911;51.526;11.536;2023-07-13T07:20:03;26.25;40.17
51878;SHT31;37911;51.526;11.536;2023-07-13T07:23:07;26.58;39.84
51878;SHT31;37911;51.526;11.536;2023-07-13T07:26:10;26.78;39.45
51878;SHT31;37911;51.526;11.536;2023-07-13T07:29:14;26.95;39.59
51878;SHT31;37911;51.526;11.536;2023-07-13T07:32:20;26.83;39.70
51878;SHT31;37911;51.526;11.536;2023-07-13T07:35:23;27.02;39.55
51878;SHT31;37911;51.526;11.536;2023-07-13T07:38:28;27.39;39.60
51878;SHT31;37911;51.526;11.536;2023-07-13T07:41:31;27.57;39.70
51878;SHT31;37911;51.526;11.536;2023-07-13T07:44:35;27.84;38.92
51878;SHT31;37911;51.526;11.536;2023-07-13T07:47:41;27.90;38.39
51878;SHT31;37911;51.526;11.536;2023-07-13T07:50:44;27.94;38.10
51878;SHT31;37911;51.526;11.536;2023-07-13T07:53:48;27.91;38.19
51878;SHT31;37911;51.526;11.536;2023-07-13T07:56:51;28.25;36.94
51878;SHT31;37911;51.526;11.536;2023-07-13T07:59:55;28.21;37.52
51878;SHT31;37911;51.526;11.536;2023-07-13T08:03:01;28.41;37.37
51878;SHT31;37911;51.526;11.536;2023-07-13T08:06:06;28.53;36.45
51878;SHT31;37911;51.526;11.536;2023-07-13T08:09:10;29.00;36.01
51878;SHT31;37911;51.526;11.536;2023-07-13T08:12:13;29.22;34.99
51878;SHT31;37911;51.526;11.536;2023-07-13T08:15:17;28.99;35.29
51878;SHT31;37911;51.526;11.536;2023-07-13T08:18:24;29.19;35.56
51878;SHT31;37911;51.526;11.536;2023-07-13T08:21:28;29.33;34.59
51878;SHT31;37911;51.526;11.536;2023-07-13T08:24:32;29.07;35.51
51878;SHT31;37911;51.526;11.536;2023-07-13T08:27:35;29.07;36.18
51878;SHT31;37911;51.526;11.536;2023-07-13T08:30:38;28.98;36.15
51878;SHT31;37911;51.526;11.536;2023-07-13T08:33:44;29.19;34.75
51878;SHT31;37911;51.526;11.536;2023-07-13T08:36:48;29.92;34.72
51878;SHT31;37911;51.526;11.536;2023-07-13T08:39:51;29.87;34.41
51878;SHT31;37911;51.526;11.536;2023-07-13T08:42:57;30.09;33.17
51878;SHT31;37911;51.526;11.536;2023-07-13T08:46:07;29.42;34.18
51878;SHT31;37911;51.526;11.536;2023-07-13T08:49:16;30.02;34.56
51878;SHT31;37911;51.526;11.536;2023-07-13T08:52:30;29.61;34.24
51878;SHT31;37911;51.526;11.536;2023-07-13T08:55:36;29.97;33.20
51878;SHT31;37911;51.526;11.536;2023-07-13T08:58:40;29.71;33.23
51878;SHT31;37911;51.526;11.536;2023-07-13T09:01:54;29.22;35.18
51878;SHT31;37911;51.526;11.536;2023-07-13T09:05:10;29.81;33.85
51878;SHT31;37911;51.526;11.536;2023-07-13T09:08:30;29.40;33.74
51878;SHT31;37911;51.526;11.536;2023-07-13T09:11:45;29.49;32.15
51878;SHT31;37911;51.526;11.536;2023-07-13T09:14:51;28.82;33.32
51878;SHT31;37911;51.526;11.536;2023-07-13T09:17:59;28.84;34.26
51878;SHT31;37911;51.526;11.536;2023-07-13T09:21:10;28.14;35.40
51878;SHT31;37911;51.526;11.536;2023-07-13T09:24:29;29.02;33.16
51878;SHT31;37911;51.526;11.536;2023-07-13T09:27:39;29.51;33.48
51878;SHT31;37911;51.526;11.536;2023-07-13T09:30:48;29.82;32.60
51878;SHT31;37911;51.526;11.536;2023-07-13T09:33:53;29.58;32.02
51878;SHT31;37911;51.526;11.536;2023-07-13T09:36:59;29.29;31.87
51878;SHT31;37911;51.526;11.536;2023-07-13T09:40:04;29.47;31.25
51878;SHT31;37911;51.526;11.536;2023-07-13T09:43:10;29.78;30.68
51878;SHT31;37911;51.526;11.536;2023-07-13T09:46:20;29.87;30.96
51878;SHT31;37911;51.526;11.536;2023-07-13T09:49:26;29.88;30.63
51878;SHT31;37911;51.526;11.536;2023-07-13T09:52:42;30.76;30.94
51878;SHT31;37911;51.526;11.536;2023-07-13T09:55:47;31.14;29.94
51878;SHT31;37911;51.526;11.536;2023-07-13T09:58:51;30.04;30.52
51878;SHT31;37911;51.526;11.536;2023-07-13T10:01:54;30.24;29.43
51878;SHT31;37911;51.526;11.536;2023-07-13T10:05:00;30.24;30.54
51878;SHT31;37911;51.526;11.536;2023-07-13T10:08:16;30.33;29.09
51878;SHT31;37911;51.526;11.536;2023-07-13T10:11:21;29.70;29.28
51878;SHT31;37911;51.526;11.536;2023-07-13T10:14:25;29.35;29.48
51878;SHT31;37911;51.526;11.536;2023-07-13T10:17:30;29.31;29.92
51878;SHT31;37911;51.526;11.536;2023-07-13T10:20:34;29.23;29.58
51878;SHT31;37911;51.526;11.536;2023-07-13T10:23:40;28.76;29.33
51878;SHT31;37911;51.526;11.536;2023-07-13T10:26:48;28.58;30.72
51878;SHT31;37911;51.526;11.536;2023-07-13T10:29:55;29.37;29.17
51878;SHT31;37911;51.526;11.536;2023-07-13T10:33:10;29.92;27.67
51878;SHT31;37911;51.526;11.536;2023-07-13T10:36:19;29.98;27.91
51878;SHT31;37911;51.526;11.536;2023-07-13T10:39:27;29.27;28.56
51878;SHT31;37911;51.526;11.536;2023-07-13T10:42:35;28.88;29.96
51878;SHT31;37911;51.526;11.536;2023-07-13T10:45:43;28.41;30.82
51878;SHT31;37911;51.526;11.536;2023-07-13T10:48:52;28.37;31.43
51878;SHT31;37911;51.526;11.536;2023-07-13T10:51:57;28.48;30.36
51878;SHT31;37911;51.526;11.536;2023-07-13T10:55:11;27.93;32.12
51878;SHT31;37911;51.526;11.536;2023-07-13T10:58:33;28.27;31.03
51878;SHT31;37911;51.526;11.536;2023-07-13T11:01:40;28.53;30.58
51878;SHT31;37911;51.526;11.536;2023-07-13T11:04:45;28.02;30.95
51878;SHT31;37911;51.526;11.536;2023-07-13T11:07:56;28.08;31.25
51878;SHT31;37911;51.526;11.536;2023-07-13T11:11:37;28.01;31.46
51878;SHT31;37911;51.526;11.536;2023-07-13T11:15:05;27.80;31.38
51878;SHT31;37911;51.526;11.536;2023-07-13T11:18:21;27.86;32.46
51878;SHT31;37911;51.526;11.536;2023-07-13T11:21:26;28.08;30.39
51878;SHT31;37911;51.526;11.536;2023-07-13T11:24:52;27.87;30.42
51878;SHT31;37911;51.526;11.536;2023-07-13T11:28:16;28.22;30.76
51878;SHT31;37911;51.526;11.536;2023-07-13T11:31:20;28.29;31.30
51878;SHT31;37911;51.526;11.536;2023-07-13T11:34:28;27.91;31.20
51878;SHT31;37911;51.526;11.536;2023-07-13T11:37:33;28.01;31.36
51878;SHT31;37911;51.526;11.536;2023-07-13T11:40:37;28.49;32.14
51878;SHT31;37911;51.526;11.536;2023-07-13T11:43:44;29.12;30.89
51878;SHT31;37911;51.526;11.536;2023-07-13T11:46:50;29.34;30.32
51878;SHT31;37911;51.526;11.536;2023-07-13T11:49:55;29.70;30.07
51878;SHT31;37911;51.526;11.536;2023-07-13T11:53:00;30.09;28.96
51878;SHT31;37911;51.526;11.536;2023-07-13T11:56:05;30.15;28.64
51878;SHT31;37911;51.526;11.536;2023-07-13T11:59:13;30.07;28.73
51878;SHT31;37911;51.526;11.536;2023-07-13T12:02:25;29.91;29.89
51878;SHT31;37911;51.526;11.536;2023-07-13T12:05:29;30.29;28.96
51878;SHT31;37911;51.526;11.536;2023-07-13T12:08:38;30.32;29.07
51878;SHT31;37911;51.526;11.536;2023-07-13T12:11:43;30.46;28.35
51878;SHT31;37911;51.526;11.536;2023-07-13T12:14:51;30.72;28.25
51878;SHT31;37911;51.526;11.536;2023-07-13T12:17:56;30.36;28.25
51878;SHT31;37911;51.526;11.536;2023-07-13T12:21:00;30.22;28.77
51878;SHT31;37911;51.526;11.536;2023-07-13T12:24:14;30.02;28.70
51878;SHT31;37911;51.526;11.536;2023-07-13T12:27:20;29.91;28.40
51878;SHT31;37911;51.526;11.536;2023-07-13T12:30:30;29.71;28.47
51878;SHT31;37911;51.526;11.536;2023-07-13T12:33:39;29.75;29.98
51878;SHT31;37911;51.526;11.536;2023-07-13T12:36:47;30.02;28.79
51878;SHT31;37911;51.526;11.536;2023-07-13T12:39:52;29.97;28.72
51878;SHT31;37911;51.526;11.536;2023-07-13T12:42:56;29.51;28.54
51878;SHT31;37911;51.526;11.536;2023-07-13T12:46:05;29.20;30.43
51878;SHT31;37911;51.526;11.536;2023-07-13T12:49:18;29.27;29.95
51878;SHT31;37911;51.526;11.536;2023-07-13T12:52:29;29.44;29.01
51878;SHT31;37911;51.526;11.536;2023-07-13T12:55:42;29.74;28.92
51878;SHT31;37911;51.526;11.536;2023-07-13T12:58:47;29.38;29.54
51878;SHT31;37911;51.526;11.536;2023-07-13T13:01:58;29.51;29.21
51878;SHT31;37911;51.526;11.536;2023-07-13T13:05:03;29.74;28.65
51878;SHT31;37911;51.526;11.536;2023-07-13T13:08:11;29.64;28.62
51878;SHT31;37911;51.526;11.536;2023-07-13T13:11:14;29.63;29.04
51878;SHT31;37911;51.526;11.536;2023-07-13T13:14:18;29.54;29.03
51878;SHT31;37911;51.526;11.536;2023-07-13T13:17:28;29.68;29.08
51878;SHT31;37911;51.526;11.536;2023-07-13T13:20:33;29.75;29.57
51878;SHT31;37911;51.526;11.536;2023-07-13T13:23:37;30.00;28.38
51878;SHT31;37911;51.526;11.536;2023-07-13T13:26:41;30.45;28.86
51878;SHT31;37911;51.526;11.536;2023-07-13T13:29:51;30.11;28.81
51878;SHT31;37911;51.526;11.536;2023-07-13T13:32:58;29.71;28.96
51878;SHT31;37911;51.526;11.536;2023-07-13T13:36:04;29.65;29.57
51878;SHT31;37911;51.526;11.536;2023-07-13T13:39:22;30.00;29.33
51878;SHT31;37911;51.526;11.536;2023-07-13T13:42:26;30.12;29.62
51878;SHT31;37911;51.526;11.536;2023-07-13T13:45:31;29.77;28.51
51878;SHT31;37911;51.526;11.536;2023-07-13T13:48:37;29.50;28.38
51878;SHT31;37911;51.526;11.536;2023-07-13T13:51:41;29.20;29.50
51878;SHT31;37911;51.526;11.536;2023-07-13T13:54:44;28.93;29.37
51878;SHT31;37911;51.526;11.536;2023-07-13T13:57:48;28.59;30.10
51878;SHT31;37911;51.526;11.536;2023-07-13T14:00:51;28.75;30.81
51878;SHT31;37911;51.526;11.536;2023-07-13T14:03:57;28.69;30.38
51878;SHT31;37911;51.526;11.536;2023-07-13T14:07:01;28.59;30.83
51878;SHT31;37911;51.526;11.536;2023-07-13T14:10:11;29.10;30.54
51878;SHT31;37911;51.526;11.536;2023-07-13T14:13:17;29.09;30.55
51878;SHT31;37911;51.526;11.536;2023-07-13T14:16:22;28.80;30.53
51878;SHT31;37911;51.526;11.536;2023-07-13T14:19:32;28.68;31.45
51878;SHT31;37911;51.526;11.536;2023-07-13T14:22:36;28.62;31.63
51878;SHT31;37911;51.526;11.536;2023-07-13T14:25:39;28.71;31.26
51878;SHT31;37911;51.526;11.536;2023-07-13T14:28:44;28.89;31.05
51878;SHT31;37911;51.526;11.536;2023-07-13T14:31:48;28.95;30.78
51878;SHT31;37911;51.526;11.536;2023-07-13T14:34:54;28.63;30.45
51878;SHT31;37911;51.526;11.536;2023-07-13T14:37:59;28.19;32.15
51878;SHT31;37911;51.526;11.536;2023-07-13T14:41:02;28.14;32.11
51878;SHT31;37911;51.526;11.536;2023-07-13T14:44:11;28.05;31.99
51878;SHT31;37911;51.526;11.536;2023-07-13T14:47:15;28.05;32.98
51878;SHT31;37911;51.526;11.536;2023-07-13T14:50:24;28.52;31.81
51878;SHT31;37911;51.526;11.536;2023-07-13T14:53:29;29.04;31.02
51878;SHT31;37911;51.526;11.536;2023-07-13T14:56:32;29.07;31.46
51878;SHT31;37911;51.526;11.536;2023-07-13T14:59:35;29.07;31.10
51878;SHT31;37911;51.526;11.536;2023-07-13T15:02:39;28.83;31.17
51878;SHT31;37911;51.526;11.536;2023-07-13T15:05:45;28.68;32.18
51878;SHT31;37911;51.526;11.536;2023-07-13T15:08:48;28.41;31.63
51878;SHT31;37911;51.526;11.536;2023-07-13T15:11:52;28.31;32.39
51878;SHT31;37911;51.526;11.536;2023-07-13T15:14:56;28.55;31.93
51878;SHT31;37911;51.526;11.536;2023-07-13T15:17:59;28.72;32.42
51878;SHT31;37911;51.526;11.536;2023-07-13T15:21:08;28.76;32.59
51878;SHT31;37911;51.526;11.536;2023-07-13T15:24:14;28.78;32.25
51878;SHT31;37911;51.526;11.536;2023-07-13T15:27:18;28.79;32.08
51878;SHT31;37911;51.526;11.536;2023-07-13T15:30:22;29.17;32.05
51878;SHT31;37911;51.526;11.536;2023-07-13T15:33:27;28.92;31.10
51878;SHT31;37911;51.526;11.536;2023-07-13T15:36:33;28.86;31.62
51878;SHT31;37911;51.526;11.536;2023-07-13T15:39:37;28.51;31.10
51878;SHT31;37911;51.526;11.536;2023-07-13T15:42:41;28.12;31.27
51878;SHT31;37911;51.526;11.536;2023-07-13T15:45:46;27.93;31.71
51878;SHT31;37911;51.526;11.536;2023-07-13T15:48:52;27.77;31.74
51878;SHT31;37911;51.526;11.536;2023-07-13T15:52:00;27.68;32.68
51878;SHT31;37911;51.526;11.536;2023-07-13T15:55:04;27.42;33.38
51878;SHT31;37911;51.526;11.536;2023-07-13T15:58:10;27.19;34.22
51878;SHT31;37911;51.526;11.536;2023-07-13T16:01:15;27.17;34.64
51878;SHT31;37911;51.526;11.536;2023-07-13T16:04:19;27.13;34.81
51878;SHT31;37911;51.526;11.536;2023-07-13T16:07:25;27.23;34.35
51878;SHT31;37911;51.526;11.536;2023-07-13T16:10:31;27.19;34.79
51878;SHT31;37911;51.526;11.536;2023-07-13T16:13:35;27.13;34.89
51878;SHT31;37911;51.526;11.536;2023-07-13T16:16:40;27.13;34.93
51878;SHT31;37911;51.526;11.536;2023-07-13T16:19:43;27.03;35.78
51878;SHT31;37911;51.526;11.536;2023-07-13T16:22:51;26.79;35.72
51878;SHT31;37911;51.526;11.536;2023-07-13T16:25:55;26.88;35.84
51878;SHT31;37911;51.526;11.536;2023-07-13T16:28:59;26.78;36.43
51878;SHT31;37911;51.526;11.536;2023-07-13T16:32:05;26.73;35.91
51878;SHT31;37911;51.526;11.536;2023-07-13T16:35:09;26.69;36.16
51878;SHT31;37911;51.526;11.536;2023-07-13T16:38:17;26.59;36.47
51878;SHT31;37911;51.526;11.536;2023-07-13T16:41:21;26.58;36.41
51878;SHT31;37911;51.526;11.536;2023-07-13T16:44:25;26.42;36.91
51878;SHT31;37911;51.526;11.536;2023-07-13T16:47:29;26.35;36.79
51878;SHT31;37911;51.526;11.536;2023-07-13T16:50:33;26.58;36.77
51878;SHT31;37911;51.526;11.536;2023-07-13T16:53:39;26.67;36.39
51878;SHT31;37911;51.526;11.536;2023-07-13T16:56:44;26.68;35.93
51878;SHT31;37911;51.526;11.536;2023-07-13T16:59:48;26.48;35.91
51878;SHT31;37911;51.526;11.536;2023-07-13T17:02:52;26.55;36.11
51878;SHT31;37911;51.526;11.536;2023-07-13T17:06:18;26.13;36.98
51878;SHT31;37911;51.526;11.536;2023-07-13T17:09:27;26.05;37.45
51878;SHT31;37911;51.526;11.536;2023-07-13T17:12:31;25.96;37.32
51878;SHT31;37911;51.526;11.536;2023-07-13T17:15:35;25.87;37.03
51878;SHT31;37911;51.526;11.536;2023-07-13T17:18:38;25.81;37.80
51878;SHT31;37911;51.526;11.536;2023-07-13T17:21:42;25.88;37.69
51878;SHT31;37911;51.526;11.536;2023-07-13T17:24:48;25.74;37.94
51878;SHT31;37911;51.526;11.536;2023-07-13T17:27:52;25.63;37.80
51878;SHT31;37911;51.526;11.536;2023-07-13T17:30:58;25.59;38.17
51878;SHT31;37911;51.526;11.536;2023-07-13T17:34:02;25.60;38.02
51878;SHT31;37911;51.526;11.536;2023-07-13T17:37:08;25.56;38.67
51878;SHT31;37911;51.526;11.536;2023-07-13T17:40:17;25.36;42.38
51878;SHT31;37911;51.526;11.536;2023-07-13T17:43:22;24.99;43.79
51878;SHT31;37911;51.526;11.536;2023-07-13T17:46:31;24.24;45.83
51878;SHT31;37911;51.526;11.536;2023-07-13T17:49:35;23.79;47.25
51878;SHT31;37911;51.526;11.536;2023-07-13T17:52:38;23.41;48.77
51878;SHT31;37911;51.526;11.536;2023-07-13T17:55:45;23.18;49.56
51878;SHT31;37911;51.526;11.536;2023-07-13T17:58:49;23.04;50.13
51878;SHT31;37911;51.526;11.536;2023-07-13T18:01:52;22.60;50.89
51878;SHT31;37911;51.526;11.536;2023-07-13T18:04:57;22.83;50.30
51878;SHT31;37911;51.526;11.536;2023-07-13T18:08:02;22.87;50.31
51878;SHT31;37911;51.526;11.536;2023-07-13T18:11:10;22.75;50.57
51878;SHT31;37911;51.526;11.536;2023-07-13T18:14:14;22.68;50.66
51878;SHT31;37911;51.526;11.536;2023-07-13T18:17:18;22.41;51.83
51878;SHT31;37911;51.526;11.536;2023-07-13T18:20:22;22.39;51.87
51878;SHT31;37911;51.526;11.536;2023-07-13T18:23:25;22.39;52.30
51878;SHT31;37911;51.526;11.536;2023-07-13T18:26:31;22.36;52.53
51878;SHT31;37911;51.526;11.536;2023-07-13T18:29:35;22.30;53.17
51878;SHT31;37911;51.526;11.536;2023-07-13T18:32:39;22.23;53.07
51878;SHT31;37911;51.526;11.536;2023-07-13T18:35:45;22.14;53.31
51878;SHT31;37911;51.526;11.536;2023-07-13T18:38:48;22.09;53.47
51878;SHT31;37911;51.526;11.536;2023-07-13T18:41:54;21.89;54.01
51878;SHT31;37911;51.526;11.536;2023-07-13T18:44:58;21.75;54.49
51878;SHT31;37911;51.526;11.536;2023-07-13T18:48:03;21.67;54.80
51878;SHT31;37911;51.526;11.536;2023-07-13T18:51:08;21.65;54.83
51878;SHT31;37911;51.526;11.536;2023-07-13T18:54:12;21.66;54.99
51878;SHT31;37911;51.526;11.536;2023-07-13T18:57:19;21.62;55.51
51878;SHT31;37911;51.526;11.536;2023-07-13T19:00:23;21.34;56.28
51878;SHT31;37911;51.526;11.536;2023-07-13T19:03:31;21.11;57.03
51878;SHT31;37911;51.526;11.536;2023-07-13T19:06:35;20.98;57.55
51878;SHT31;37911;51.526;11.536;2023-07-13T19:09:38;20.77;57.59
51878;SHT31;37911;51.526;11.536;2023-07-13T19:12:51;20.73;57.99
51878;SHT31;37911;51.526;11.536;2023-07-13T19:15:56;20.63;57.87